createdAt,value
2023-11-18T00:00:00.580Z,2.1
2023-11-18T00:10:00.596Z,2.0
2023-11-18T00:20:00.766Z,2.0
2023-11-18T00:30:00.670Z,2.1
2023-11-18T00:40:00.755Z,2.0
2023-11-18T00:50:00.700Z,2.1
2023-11-18T01:00:00.676Z,1.9
2023-11-18T01:10:00.671Z,2.0
2023-11-18T01:20:00.906Z,2.1
2023-11-18T01:30:00.616Z,2.0
2023-11-18T01:40:00.598Z,2.0
2023-11-18T01:50:00.914Z,1.8
2023-11-18T02:00:00.594Z,1.8
2023-11-18T02:10:00.597Z,1.7
2023-11-18T02:20:00.785Z,1.8
2023-11-18T02:30:00.619Z,1.8
2023-11-18T02:40:00.802Z,2.0
2023-11-18T02:50:00.705Z,2.2
2023-11-18T03:00:00.787Z,2.2
2023-11-18T03:10:00.604Z,2.2
2023-11-18T03:20:01.076Z,2.4
2023-11-18T03:30:00.720Z,2.3
2023-11-18T03:40:01.270Z,2.3
2023-11-18T03:50:00.949Z,2.3
2023-11-18T04:00:00.842Z,2.4
2023-11-18T04:10:00.870Z,2.4
2023-11-18T04:20:00.652Z,2.6
2023-11-18T04:30:01.133Z,2.8
2023-11-18T04:40:00.762Z,2.6
2023-11-18T04:50:06.556Z,2.7
2023-11-18T05:00:01.058Z,2.9
2023-11-18T05:10:01.469Z,2.9
2023-11-18T05:20:06.430Z,3.1
2023-11-18T05:30:01.161Z,3.0
2023-11-18T05:40:02.765Z,2.9
2023-11-18T05:50:00.843Z,2.7
2023-11-18T06:00:00.744Z,2.5
2023-11-18T06:10:00.753Z,2.4
2023-11-18T06:20:01.760Z,2.4
2023-11-18T06:30:01.081Z,2.3
2023-11-18T06:40:00.721Z,2.3
2023-11-18T06:50:00.882Z,2.5
2023-11-18T07:00:00.842Z,2.7
2023-11-18T07:10:00.788Z,2.7
2023-11-18T07:20:00.789Z,2.8
2023-11-18T07:30:00.992Z,3.0
2023-11-18T07:40:00.630Z,3.6
2023-11-18T07:50:00.708Z,4.1
2023-11-18T08:00:00.887Z,4.8
2023-11-18T08:10:03.071Z,5.5
2023-11-18T08:20:00.766Z,5.1
2023-11-18T08:30:00.826Z,4.6
2023-11-18T08:40:00.725Z,4.8
2023-11-18T08:50:00.651Z,4.9
2023-11-18T09:00:00.616Z,4.9
2023-11-18T09:10:00.841Z,5.1
2023-11-18T09:20:00.824Z,5.2
2023-11-18T09:30:00.909Z,4.9
2023-11-18T09:40:00.832Z,5.9
2023-11-18T09:50:01.000Z,5.9
2023-11-18T10:00:01.052Z,6.1
2023-11-18T10:10:00.817Z,5.9
2023-11-18T10:20:00.939Z,6.7
2023-11-18T10:30:00.621Z,7.2
2023-11-18T10:40:00.887Z,7.6
2023-11-18T10:50:00.685Z,6.4
2023-11-18T11:00:00.751Z,6.9
2023-11-18T11:10:00.605Z,7.3
2023-11-18T11:20:00.779Z,6.8
2023-11-18T11:30:00.647Z,6.4
2023-11-18T11:40:00.632Z,6.4
2023-11-18T11:50:01.781Z,6.5
2023-11-18T12:00:13.029Z,6.2
2023-11-18T12:10:00.478Z,6.0
2023-11-18T12:20:01.183Z,6.3
2023-11-18T12:30:00.539Z,6.5
2023-11-18T12:40:00.488Z,6.2
2023-11-18T12:50:00.568Z,6.2
2023-11-18T13:00:00.522Z,6.1
2023-11-18T13:10:00.451Z,5.9
2023-11-18T13:20:00.554Z,6.0
2023-11-18T13:30:00.562Z,5.6
2023-11-18T13:40:00.465Z,5.4
2023-11-18T13:50:00.485Z,5.0
2023-11-18T14:00:00.470Z,4.8
2023-11-18T14:10:00.454Z,4.6
2023-11-18T14:20:00.577Z,4.7
2023-11-18T14:30:00.521Z,4.3
2023-11-18T14:40:00.443Z,3.9
2023-11-18T14:50:00.746Z,3.8
2023-11-18T15:00:00.794Z,3.6
2023-11-18T15:10:00.538Z,3.5
2023-11-18T15:20:00.508Z,3.3
2023-11-18T15:30:00.445Z,3.3
2023-11-18T15:40:00.450Z,3.3
2023-11-18T15:50:00.496Z,3.3
2023-11-18T16:00:00.439Z,3.0
2023-11-18T16:10:00.470Z,3.0
2023-11-18T16:20:00.535Z,2.8
2023-11-18T16:30:00.536Z,2.6
2023-11-18T16:40:00.481Z,2.8
2023-11-18T16:50:03.894Z,3.0
2023-11-18T17:00:00.449Z,3.3
2023-11-18T17:10:00.463Z,3.4
2023-11-18T17:20:00.551Z,3.5
2023-11-18T17:30:00.508Z,3.2
2023-11-18T17:40:00.465Z,2.8
2023-11-18T17:50:00.536Z,2.4
2023-11-18T18:00:00.481Z,2.1
2023-11-18T18:10:00.632Z,2.3
2023-11-18T18:20:00.575Z,2.3
2023-11-18T18:30:00.801Z,2.2
2023-11-18T18:40:02.561Z,2.2
2023-11-18T18:50:00.695Z,2.1
2023-11-18T19:00:00.480Z,2.1
2023-11-18T19:10:00.457Z,2.0
2023-11-18T19:20:00.600Z,1.5
2023-11-18T19:30:00.601Z,1.5
2023-11-18T19:40:00.480Z,1.3
2023-11-18T19:50:00.582Z,1.3
2023-11-18T20:00:00.530Z,1.3
2023-11-18T20:10:00.510Z,1.2
2023-11-18T20:20:00.690Z,1.2
2023-11-18T20:30:00.466Z,1.4
2023-11-18T20:40:00.449Z,1.7
2023-11-18T20:50:00.461Z,1.7
2023-11-18T21:00:00.512Z,2.2
2023-11-18T21:10:00.526Z,2.5
2023-11-18T21:20:00.494Z,2.5
2023-11-18T21:30:00.508Z,2.5
2023-11-18T21:40:00.484Z,2.3
2023-11-18T21:50:00.467Z,2.4
2023-11-18T22:00:00.486Z,2.0
2023-11-18T22:10:00.466Z,1.7
2023-11-18T22:20:00.441Z,1.3
2023-11-18T22:30:00.539Z,1.0
2023-11-18T22:40:00.444Z,0.3
2023-11-18T22:50:00.450Z,0.0
2023-11-18T23:00:00.469Z,0.1
2023-11-18T23:10:00.499Z,-0.4
2023-11-18T23:20:00.441Z,-0.3
2023-11-18T23:30:00.509Z,-0.8
2023-11-18T23:40:00.515Z,-1.1
2023-11-18T23:50:00.511Z,-1.1
